Time;durP1;ratioP1;P1;durP2;ratioP2;P2;SDS_P1;SDS_P2;PMS_P1;PMS_P2;Temp;Humidity;BMP_temperature;BMP_pressure;BME280_temperature;BME280_humidity;BME280_pressure;Samples;Min_cycle;Max_cycle;Signal;HPM_P1;HPM_P2
2022/05/31 00:01:32;;;;;;;4.25;1.02;;;;;;;;;;5034872;28;20049;-63
2022/05/31 00:03:59;;;;;;;3.70;0.80;;;;;;;;;;5037605;28;20048;-62
2022/05/31 00:06:26;;;;;;;2.70;0.65;;;;;;;;;;5037096;28;20267;-61
2022/05/31 00:08:53;;;;;;;2.88;0.70;;;;;;;;;;5039159;28;20041;-61
2022/05/31 00:11:20;;;;;;;4.32;0.82;;;;;;;;;;5037506;28;20101;-61
2022/05/31 00:13:47;;;;;;;6.93;0.60;;;;;;;;;;5035988;28;20054;-62
2022/05/31 00:16:14;;;;;;;2.38;0.70;;;;;;;;;;5036427;28;20040;-62
2022/05/31 00:18:40;;;;;;;3.50;0.82;;;;;;;;;;5034823;28;20041;-62
2022/05/31 00:21:07;;;;;;;3.58;0.82;;;;;;;;;;5035961;28;20044;-61
2022/05/31 00:23:35;;;;;;;2.20;0.60;;;;;;;;;;5032930;28;20150;-63
2022/05/31 00:26:02;;;;;;;2.00;0.70;;;;;;;;;;5032095;28;20044;-63
2022/05/31 00:28:28;;;;;;;3.30;0.75;;;;;;;;;;5033941;28;20074;-63
2022/05/31 00:30:55;;;;;;;2.50;0.80;;;;;;;;;;5032983;28;20598;-62
2022/05/31 00:33:22;;;;;;;5.05;0.82;;;;;;;;;;5032090;28;20044;-60
2022/05/31 00:35:49;;;;;;;2.83;0.80;;;;;;;;;;5035115;28;20052;-61
2022/05/31 00:38:16;;;;;;;2.63;0.70;;;;;;;;;;5034414;28;20041;-62
2022/05/31 00:40:43;;;;;;;2.10;0.60;;;;;;;;;;5034837;28;20041;-61
2022/05/31 00:43:11;;;;;;;3.75;0.70;;;;;;;;;;5035086;28;20160;-62
2022/05/31 00:45:45;;;;;;;2.35;0.57;;;;;;;;;;5034651;28;20056;-61
2022/05/31 00:48:18;;;;;;;2.17;0.80;;;;;;;;;;5034284;28;20111;-60
2022/05/31 00:50:47;;;;;;;7.43;0.70;;;;;;;;;;5032860;28;20064;-62
2022/05/31 00:53:19;;;;;;;2.53;0.70;;;;;;;;;;5035463;28;20051;-61
2022/05/31 00:55:56;;;;;;;4.22;0.90;;;;;;;;;;5035165;28;21928;-64
2022/05/31 00:58:26;;;;;;;4.07;0.90;;;;;;;;;;5032375;28;20102;-64
2022/05/31 01:00:53;;;;;;;2.38;0.60;;;;;;;;;;5034712;28;20063;-62
2022/05/31 01:03:21;;;;;;;2.92;0.82;;;;;;;;;;5033105;28;20250;-63
2022/05/31 01:05:48;;;;;;;5.28;0.70;;;;;;;;;;5034237;28;20608;-63
2022/05/31 01:08:15;;;;;;;1.85;0.60;;;;;;;;;;5033997;28;20036;-61
2022/05/31 01:10:42;;;;;;;3.60;0.70;;;;;;;;;;5032580;28;20471;-61
2022/05/31 01:13:10;;;;;;;3.28;0.80;;;;;;;;;;5033781;28;20044;-61
2022/05/31 01:15:37;;;;;;;6.47;0.95;;;;;;;;;;5031700;28;20041;-62
2022/05/31 01:18:05;;;;;;;2.53;0.88;;;;;;;;;;5032587;28;20077;-62
2022/05/31 01:20:32;;;;;;;1.90;0.60;;;;;;;;;;5032161;28;20054;-62
2022/05/31 01:23:04;;;;;;;2.15;0.52;;;;;;;;;;5034237;28;20051;-61
2022/05/31 01:25:54;;;;;;;1.88;0.70;;;;;;;;;;5036186;28;20409;-61
2022/05/31 01:28:38;;;;;;;4.28;0.85;;;;;;;;;;5036987;28;20044;-62
2022/05/31 01:31:12;;;;;;;2.80;0.63;;;;;;;;;;5025786;28;20462;-62
2022/05/31 01:33:47;;;;;;;2.35;0.60;;;;;;;;;;5035609;28;20037;-62
2022/05/31 01:36:17;;;;;;;2.22;0.68;;;;;;;;;;5036339;28;20045;-61
2022/05/31 01:38:47;;;;;;;2.75;0.80;;;;;;;;;;5033866;28;20108;-62
2022/05/31 01:41:32;;;;;;;2.45;0.60;;;;;;;;;;5022029;28;20042;-63
2022/05/31 01:44:00;;;;;;;2.33;0.73;;;;;;;;;;5033317;28;20052;-60
2022/05/31 01:46:32;;;;;;;4.05;0.70;;;;;;;;;;5032034;28;20693;-64
2022/05/31 01:49:00;;;;;;;1.85;0.65;;;;;;;;;;5036853;28;20087;-61
2022/05/31 01:51:27;;;;;;;2.50;0.80;;;;;;;;;;5039338;28;20048;-64
2022/05/31 01:53:54;;;;;;;2.63;0.70;;;;;;;;;;5036979;28;20063;-61
2022/05/31 01:56:22;;;;;;;2.17;0.70;;;;;;;;;;5035198;28;20037;-62
2022/05/31 01:58:50;;;;;;;2.65;0.73;;;;;;;;;;5035966;28;20056;-61
2022/05/31 02:01:17;;;;;;;2.70;0.90;;;;;;;;;;5036587;28;20049;-62
2022/05/31 02:03:45;;;;;;;2.90;0.70;;;;;;;;;;5035525;28;20033;-62
2022/05/31 02:06:45;;;;;;;2.80;0.65;;;;;;;;;;5035730;28;20040;-63
2022/05/31 02:09:13;;;;;;;2.28;0.60;;;;;;;;;;5001533;28;20037;-65
2022/05/31 02:11:41;;;;;;;2.08;0.70;;;;;;;;;;5036985;28;20049;-64
2022/05/31 02:14:08;;;;;;;3.63;0.68;;;;;;;;;;5036379;28;20099;-63
2022/05/31 02:16:35;;;;;;;2.13;0.70;;;;;;;;;;5036405;28;20041;-65
2022/05/31 02:21:47;;;;;;;2.42;0.70;;;;;;;;;;5035691;28;20044;-63
2022/05/31 02:24:15;;;;;;;3.00;1.17;;;;;;;;;;5035689;28;21036;-66
2022/05/31 02:26:43;;;;;;;4.50;0.70;;;;;;;;;;5009735;28;20052;-66
2022/05/31 02:29:11;;;;;;;4.40;0.80;;;;;;;;;;5037155;28;20576;-66
2022/05/31 02:31:38;;;;;;;2.25;0.68;;;;;;;;;;5035559;28;20029;-65
2022/05/31 02:34:05;;;;;;;2.08;0.70;;;;;;;;;;5036894;28;20037;-65
2022/05/31 02:36:33;;;;;;;2.20;0.70;;;;;;;;;;5036271;28;20087;-65
2022/05/31 02:39:00;;;;;;;2.92;0.80;;;;;;;;;;5035176;28;20103;-65
2022/05/31 02:41:27;;;;;;;1.77;0.70;;;;;;;;;;5033778;28;21941;-65
2022/05/31 02:43:54;;;;;;;5.38;0.80;;;;;;;;;;5038167;28;20235;-63
2022/05/31 02:46:21;;;;;;;2.03;0.60;;;;;;;;;;5035519;28;20398;-65
2022/05/31 02:48:48;;;;;;;1.92;0.70;;;;;;;;;;5037458;28;20041;-64
2022/05/31 02:51:15;;;;;;;2.75;0.85;;;;;;;;;;5037861;28;20041;-60
2022/05/31 02:53:41;;;;;;;2.75;0.60;;;;;;;;;;5037789;28;20117;-63
2022/05/31 02:56:09;;;;;;;3.22;0.68;;;;;;;;;;5035742;28;20048;-60
2022/05/31 02:58:35;;;;;;;1.88;0.50;;;;;;;;;;5034709;28;20053;-62
2022/05/31 03:01:02;;;;;;;2.63;0.60;;;;;;;;;;5051210;28;20049;-62
2022/05/31 03:03:29;;;;;;;2.67;0.70;;;;;;;;;;5034961;28;20100;-61
2022/05/31 03:05:56;;;;;;;2.70;0.77;;;;;;;;;;5036281;28;20682;-62
2022/05/31 03:08:23;;;;;;;2.58;0.77;;;;;;;;;;5036263;28;20095;-59
2022/05/31 03:10:52;;;;;;;5.97;0.82;;;;;;;;;;5037440;28;20417;-63
2022/05/31 03:13:23;;;;;;;3.72;0.85;;;;;;;;;;5037479;28;20043;-61
2022/05/31 03:15:52;;;;;;;2.65;0.73;;;;;;;;;;5034450;28;20456;-62
2022/05/31 03:18:22;;;;;;;3.90;0.70;;;;;;;;;;5036009;28;20048;-62
2022/05/31 03:20:53;;;;;;;2.97;0.70;;;;;;;;;;5037284;28;20206;-62
2022/05/31 03:23:27;;;;;;;2.97;0.82;;;;;;;;;;5036398;28;20057;-62
2022/05/31 03:25:55;;;;;;;4.43;0.98;;;;;;;;;;5019891;28;20060;-61
2022/05/31 03:28:23;;;;;;;2.95;0.77;;;;;;;;;;5019439;28;20126;-61
2022/05/31 03:30:49;;;;;;;2.65;0.85;;;;;;;;;;5020759;28;20052;-62
2022/05/31 03:33:16;;;;;;;3.95;0.57;;;;;;;;;;5016111;28;20041;-60
2022/05/31 03:35:44;;;;;;;3.80;0.63;;;;;;;;;;5034402;28;20033;-58
2022/05/31 03:38:11;;;;;;;1.35;0.50;;;;;;;;;;5036355;28;20072;-64
2022/05/31 03:40:56;;;;;;;1.63;0.60;;;;;;;;;;5035372;28;20053;-64
2022/05/31 03:43:23;;;;;;;5.35;0.80;;;;;;;;;;5034489;28;20453;-61
2022/05/31 03:45:50;;;;;;;3.20;0.70;;;;;;;;;;5035475;28;20052;-62
2022/05/31 03:48:17;;;;;;;2.78;0.90;;;;;;;;;;5035382;28;20056;-64
2022/05/31 03:50:44;;;;;;;3.63;0.65;;;;;;;;;;5035136;28;20121;-62
2022/05/31 03:53:14;;;;;;;4.25;0.90;;;;;;;;;;5036814;28;20038;-63
2022/05/31 03:55:44;;;;;;;2.80;0.90;;;;;;;;;;5033307;28;20070;-61
2022/05/31 03:58:11;;;;;;;4.03;0.70;;;;;;;;;;5035734;28;20083;-62
2022/05/31 04:00:37;;;;;;;3.95;0.82;;;;;;;;;;5034763;28;20053;-63
2022/05/31 04:03:04;;;;;;;2.70;0.63;;;;;;;;;;5034936;28;20584;-63
2022/05/31 04:05:31;;;;;;;5.28;1.00;;;;;;;;;;5034348;28;20045;-61
2022/05/31 04:08:02;;;;;;;2.22;0.80;;;;;;;;;;5033811;28;20037;-62
2022/05/31 04:10:30;;;;;;;3.15;0.80;;;;;;;;;;5034003;28;20044;-62
2022/05/31 04:12:57;;;;;;;3.20;1.02;;;;;;;;;;5035515;28;20509;-63
2022/05/31 04:15:24;;;;;;;3.75;0.85;;;;;;;;;;5033675;28;20874;-64
2022/05/31 04:17:50;;;;;;;3.72;1.17;;;;;;;;;;5034656;28;20037;-64
2022/05/31 04:20:17;;;;;;;5.03;0.98;;;;;;;;;;5034787;28;20048;-63
2022/05/31 04:22:44;;;;;;;2.42;0.88;;;;;;;;;;5034700;28;20045;-62
2022/05/31 04:25:11;;;;;;;5.35;0.90;;;;;;;;;;5036380;28;20052;-62
2022/05/31 04:27:37;;;;;;;3.50;0.73;;;;;;;;;;5033239;28;20175;-63
2022/05/31 04:30:04;;;;;;;4.20;0.90;;;;;;;;;;5034228;28;20107;-62
2022/05/31 04:32:31;;;;;;;3.08;0.90;;;;;;;;;;5033898;28;21767;-63
2022/05/31 04:34:58;;;;;;;3.00;0.98;;;;;;;;;;5049841;28;20072;-62
2022/05/31 04:37:25;;;;;;;5.13;1.05;;;;;;;;;;5032308;28;20231;-60
2022/05/31 04:39:51;;;;;;;3.42;1.00;;;;;;;;;;5014481;28;20118;-62
2022/05/31 04:42:18;;;;;;;4.95;1.10;;;;;;;;;;5016925;28;20033;-62
2022/05/31 04:44:45;;;;;;;2.85;1.00;;;;;;;;;;5018091;28;20156;-63
2022/05/31 04:47:11;;;;;;;9.38;1.35;;;;;;;;;;5035265;28;20682;-64
2022/05/31 04:49:38;;;;;;;4.78;1.10;;;;;;;;;;5034013;28;20428;-63
2022/05/31 04:52:05;;;;;;;5.50;1.05;;;;;;;;;;5034815;28;20041;-63
2022/05/31 04:54:32;;;;;;;4.18;0.90;;;;;;;;;;5034363;28;20044;-63
2022/05/31 04:57:00;;;;;;;2.50;0.82;;;;;;;;;;5035068;28;20029;-63
2022/05/31 04:59:27;;;;;;;2.20;0.75;;;;;;;;;;5034874;28;20049;-62
2022/05/31 05:01:54;;;;;;;5.07;1.17;;;;;;;;;;5035601;28;20041;-62
2022/05/31 05:04:21;;;;;;;4.25;0.90;;;;;;;;;;5034282;28;20039;-62
2022/05/31 05:06:47;;;;;;;2.67;0.60;;;;;;;;;;5035351;28;20070;-61
2022/05/31 05:09:14;;;;;;;2.88;0.77;;;;;;;;;;5034163;28;20097;-62
2022/05/31 05:11:41;;;;;;;1.88;0.65;;;;;;;;;;5032974;28;20041;-62
2022/05/31 05:14:07;;;;;;;2.55;0.80;;;;;;;;;;5034756;28;20041;-62
2022/05/31 05:16:34;;;;;;;2.88;0.88;;;;;;;;;;5032570;28;20045;-63
2022/05/31 05:19:01;;;;;;;3.00;1.00;;;;;;;;;;5035573;28;20045;-62
2022/05/31 05:21:27;;;;;;;3.47;0.80;;;;;;;;;;5034167;28;20813;-62
2022/05/31 05:23:55;;;;;;;5.10;0.70;;;;;;;;;;5037517;28;20101;-63
2022/05/31 05:26:21;;;;;;;3.95;0.80;;;;;;;;;;5037924;28;20517;-62
2022/05/31 05:31:35;;;;;;;2.40;0.70;;;;;;;;;;5038614;28;20056;-62
2022/05/31 05:34:02;;;;;;;2.58;0.70;;;;;;;;;;5039111;28;20037;-62
2022/05/31 05:36:29;;;;;;;5.15;0.90;;;;;;;;;;5035936;28;20048;-61
2022/05/31 05:38:56;;;;;;;2.97;0.80;;;;;;;;;;5017469;28;20042;-61
2022/05/31 05:41:24;;;;;;;15.80;2.20;;;;;;;;;;5017155;28;20045;-61
2022/05/31 05:43:51;;;;;;;8.07;1.00;;;;;;;;;;5017797;28;20103;-61
2022/05/31 05:46:19;;;;;;;3.40;1.00;;;;;;;;;;5016426;28;20045;-62
2022/05/31 05:48:46;;;;;;;4.25;1.05;;;;;;;;;;5016706;28;20049;-62
2022/05/31 05:51:17;;;;;;;2.08;0.80;;;;;;;;;;5018839;28;20060;-62
2022/05/31 05:53:44;;;;;;;5.55;1.10;;;;;;;;;;5027068;28;20123;-61
2022/05/31 05:56:11;;;;;;;6.28;0.90;;;;;;;;;;5028377;28;20045;-62
2022/05/31 05:58:38;;;;;;;3.05;0.90;;;;;;;;;;5039295;28;20041;-61
2022/05/31 06:01:06;;;;;;;3.72;1.02;;;;;;;;;;5031215;28;20045;-60
2022/05/31 06:03:38;;;;;;;4.88;1.42;;;;;;;;;;5030698;28;20689;-61
2022/05/31 06:06:05;;;;;;;4.53;1.30;;;;;;;;;;5041693;28;20051;-60
2022/05/31 06:08:34;;;;;;;8.88;1.10;;;;;;;;;;5037188;28;20884;-60
2022/05/31 06:11:16;;;;;;;6.82;0.90;;;;;;;;;;5039196;28;20073;-61
2022/05/31 06:13:54;;;;;;;13.65;1.20;;;;;;;;;;5038602;28;20044;-61
2022/05/31 06:16:22;;;;;;;3.33;1.00;;;;;;;;;;5036663;28;20041;-61
2022/05/31 06:18:52;;;;;;;4.63;1.05;;;;;;;;;;5017991;28;20451;-61
2022/05/31 06:21:20;;;;;;;2.70;0.77;;;;;;;;;;5036809;28;20106;-61
2022/05/31 06:23:49;;;;;;;3.42;0.93;;;;;;;;;;5036954;28;20047;-61
2022/05/31 06:26:17;;;;;;;4.68;0.88;;;;;;;;;;5036151;28;20040;-62
2022/05/31 06:28:44;;;;;;;3.63;1.00;;;;;;;;;;5036694;28;20041;-59
2022/05/31 06:31:11;;;;;;;3.67;1.10;;;;;;;;;;5037354;28;20040;-62
2022/05/31 06:33:37;;;;;;;2.90;0.95;;;;;;;;;;5036306;28;20033;-62
2022/05/31 06:36:07;;;;;;;4.47;1.05;;;;;;;;;;5035727;28;20235;-61
2022/05/31 06:38:33;;;;;;;4.35;1.02;;;;;;;;;;5036597;28;20052;-60
2022/05/31 06:41:00;;;;;;;6.28;1.10;;;;;;;;;;5037533;28;20044;-61
2022/05/31 06:43:27;;;;;;;3.25;0.95;;;;;;;;;;5036993;28;20048;-61
2022/05/31 06:45:54;;;;;;;3.20;1.00;;;;;;;;;;5036028;28;20470;-61
2022/05/31 06:48:20;;;;;;;3.47;0.90;;;;;;;;;;5036275;28;20033;-61
2022/05/31 06:50:47;;;;;;;3.92;1.00;;;;;;;;;;5037114;28;20160;-61
2022/05/31 06:59:02;;;;;;;2.35;0.90;;;;;;;;;;4968455;28;20098;-60
2022/05/31 07:01:35;;;;;;;4.95;0.90;;;;;;;;;;5022695;28;20148;-62
2022/05/31 07:04:01;;;;;;;9.13;1.00;;;;;;;;;;5037220;28;20045;-61
2022/05/31 07:06:28;;;;;;;2.08;0.75;;;;;;;;;;5018288;28;20065;-62
2022/05/31 07:08:55;;;;;;;4.47;1.00;;;;;;;;;;5016994;28;20041;-61
2022/05/31 07:11:22;;;;;;;5.50;1.05;;;;;;;;;;5015338;28;20445;-62
2022/05/31 07:13:49;;;;;;;8.85;1.23;;;;;;;;;;5025288;28;20045;-60
2022/05/31 07:16:16;;;;;;;3.15;0.90;;;;;;;;;;5032736;28;20497;-61
2022/05/31 07:18:43;;;;;;;6.18;1.02;;;;;;;;;;5020811;28;20041;-61
2022/05/31 07:21:09;;;;;;;11.10;1.35;;;;;;;;;;5041320;28;20053;-62
2022/05/31 07:23:38;;;;;;;6.78;0.98;;;;;;;;;;5036958;28;20033;-61
2022/05/31 07:26:05;;;;;;;3.63;1.30;;;;;;;;;;5037407;28;20053;-61
2022/05/31 07:28:32;;;;;;;2.83;1.00;;;;;;;;;;5036122;28;20108;-61
2022/05/31 07:31:00;;;;;;;6.00;1.10;;;;;;;;;;5037477;28;20041;-61
2022/05/31 07:33:27;;;;;;;3.92;1.10;;;;;;;;;;5036482;28;20127;-62
2022/05/31 07:35:53;;;;;;;4.22;1.27;;;;;;;;;;5034542;28;20037;-61
2022/05/31 07:38:20;;;;;;;3.00;1.00;;;;;;;;;;5036694;28;20163;-61
2022/05/31 07:40:47;;;;;;;7.25;1.00;;;;;;;;;;5036426;28;20417;-60
2022/05/31 07:43:14;;;;;;;3.40;0.95;;;;;;;;;;5035168;28;20221;-61
2022/05/31 07:45:41;;;;;;;3.50;1.13;;;;;;;;;;5034339;28;20042;-61
2022/05/31 07:48:08;;;;;;;5.80;1.10;;;;;;;;;;5035827;28;21739;-62
2022/05/31 07:50:35;;;;;;;11.02;1.08;;;;;;;;;;5032103;28;20056;-60
2022/05/31 07:53:03;;;;;;;2.97;1.13;;;;;;;;;;5036172;28;20036;-61
2022/05/31 07:55:31;;;;;;;6.07;1.27;;;;;;;;;;5034024;28;20106;-61
2022/05/31 08:00:43;;;;;;;8.00;1.25;;;;;;;;;;5034602;28;20052;-60
2022/05/31 08:03:09;;;;;;;3.08;1.33;;;;;;;;;;5035804;28;20045;-60
2022/05/31 08:05:40;;;;;;;3.20;1.08;;;;;;;;;;5034538;28;20498;-61
2022/05/31 08:08:09;;;;;;;4.85;1.20;;;;;;;;;;5035866;28;20136;-61
2022/05/31 08:10:36;;;;;;;3.17;0.90;;;;;;;;;;5035423;28;20049;-59
2022/05/31 08:13:03;;;;;;;3.10;1.10;;;;;;;;;;5036765;28;20040;-60
2022/05/31 08:15:29;;;;;;;4.40;1.00;;;;;;;;;;5035031;28;21048;-59
2022/05/31 08:17:56;;;;;;;2.65;0.90;;;;;;;;;;5036076;28;20405;-60
2022/05/31 08:20:23;;;;;;;3.75;1.10;;;;;;;;;;5034897;28;20037;-61
2022/05/31 08:22:52;;;;;;;7.80;1.05;;;;;;;;;;5035986;28;20037;-60
2022/05/31 08:25:19;;;;;;;5.28;1.17;;;;;;;;;;5033999;28;20045;-61
2022/05/31 08:27:46;;;;;;;3.53;0.88;;;;;;;;;;5023379;28;20069;-61
2022/05/31 08:30:15;;;;;;;8.18;1.08;;;;;;;;;;5022550;28;20049;-61
2022/05/31 08:32:42;;;;;;;2.63;0.90;;;;;;;;;;5025398;28;20049;-59
2022/05/31 08:35:09;;;;;;;5.13;0.80;;;;;;;;;;5035134;28;20390;-60
2022/05/31 08:37:35;;;;;;;5.07;1.10;;;;;;;;;;5034267;28;20491;-60
2022/05/31 08:40:02;;;;;;;3.42;0.93;;;;;;;;;;5035666;28;20036;-59
2022/05/31 08:42:39;;;;;;;4.78;0.90;;;;;;;;;;5035246;28;20047;-60
2022/05/31 08:45:12;;;;;;;3.30;0.88;;;;;;;;;;5035138;28;20705;-60
2022/05/31 08:47:39;;;;;;;;;;;;;;;;;;5035378;28;20041;-60
2022/05/31 08:53:02;;;;;;;5.80;1.20;;;;;;;;;;5034684;28;20122;-60
2022/05/31 08:58:28;;;;;;;2.72;0.90;;;;;;;;;;5047753;28;20055;-59
2022/05/31 09:00:56;;;;;;;3.90;1.10;;;;;;;;;;5034438;28;20120;-59
2022/05/31 09:03:32;;;;;;;5.60;0.90;;;;;;;;;;5036101;28;20282;-59
2022/05/31 09:06:06;;;;;;;2.95;1.00;;;;;;;;;;5050963;28;20044;-59
2022/05/31 09:08:33;;;;;;;4.53;1.20;;;;;;;;;;5037067;28;20055;-60
2022/05/31 09:11:02;;;;;;;4.00;1.25;;;;;;;;;;5039189;28;20048;-60
2022/05/31 09:13:35;;;;;;;4.25;1.10;;;;;;;;;;5037852;28;20052;-60
2022/05/31 09:16:21;;;;;;;3.30;1.17;;;;;;;;;;5037330;28;20060;-59
2022/05/31 09:18:51;;;;;;;5.43;1.10;;;;;;;;;;4994894;28;20531;-60
2022/05/31 09:21:27;;;;;;;6.22;1.15;;;;;;;;;;5036752;28;20124;-60
2022/05/31 09:23:55;;;;;;;7.82;1.17;;;;;;;;;;5033111;28;20134;-61
2022/05/31 09:26:21;;;;;;;3.15;0.98;;;;;;;;;;5034693;28;20045;-60
2022/05/31 09:28:51;;;;;;;2.55;0.95;;;;;;;;;;5035368;28;20037;-60
2022/05/31 09:31:21;;;;;;;7.85;1.00;;;;;;;;;;5035045;28;20403;-59
2022/05/31 09:34:02;;;;;;;7.97;1.20;;;;;;;;;;5034264;28;20048;-59
2022/05/31 09:36:37;;;;;;;3.13;0.98;;;;;;;;;;5033035;28;20041;-60
2022/05/31 09:39:21;;;;;;;3.10;0.98;;;;;;;;;;4984757;28;20045;-60
2022/05/31 09:42:00;;;;;;;2.78;0.90;;;;;;;;;;5035211;28;20071;-59
2022/05/31 09:44:34;;;;;;;2.50;0.90;;;;;;;;;;5033707;28;20048;-61
2022/05/31 09:47:00;;;;;;;;;;;;;;;;;;5035361;28;20481;-60
2022/05/31 09:49:30;;;;;;;6.18;0.93;;;;;;;;;;5034620;28;20012;-62
2022/05/31 09:51:57;;;;;;;5.35;1.25;;;;;;;;;;5034513;28;20405;-60
2022/05/31 09:57:15;;;;;;;3.88;1.08;;;;;;;;;;5037630;28;20040;-61
2022/05/31 09:59:52;;;;;;;2.22;0.80;;;;;;;;;;5038678;28;20049;-60
2022/05/31 10:02:26;;;;;;;5.53;1.08;;;;;;;;;;5043036;28;20044;-59
2022/05/31 10:05:13;;;;;;;4.70;1.08;;;;;;;;;;5040854;28;20093;-59
2022/05/31 10:07:40;;;;;;;2.63;0.88;;;;;;;;;;5036630;28;20041;-59
2022/05/31 10:10:11;;;;;;;4.60;1.20;;;;;;;;;;5042622;28;20129;-59
2022/05/31 10:12:39;;;;;;;3.50;1.05;;;;;;;;;;5041455;28;20066;-60
2022/05/31 10:15:07;;;;;;;3.72;1.02;;;;;;;;;;5040703;28;20081;-60
2022/05/31 10:17:41;;;;;;;5.07;1.10;;;;;;;;;;5041843;28;20064;-59
2022/05/31 10:20:08;;;;;;;3.13;1.13;;;;;;;;;;5041859;28;20052;-59
2022/05/31 10:22:36;;;;;;;3.38;1.20;;;;;;;;;;5038588;28;20048;-60
2022/05/31 10:25:19;;;;;;;3.38;1.00;;;;;;;;;;5042366;28;20040;-60
2022/05/31 10:27:46;;;;;;;2.35;0.90;;;;;;;;;;5040641;28;20888;-61
2022/05/31 10:30:23;;;;;;;3.60;1.00;;;;;;;;;;5040048;28;20052;-59
2022/05/31 10:32:51;;;;;;;4.18;0.85;;;;;;;;;;5028469;28;20736;-58
2022/05/31 10:35:21;;;;;;;2.80;1.00;;;;;;;;;;5035487;28;20033;-59
2022/05/31 10:38:00;;;;;;;2.92;0.90;;;;;;;;;;5039281;28;20044;-59
2022/05/31 10:40:32;;;;;;;3.53;1.02;;;;;;;;;;5039395;28;20262;-60
2022/05/31 10:43:03;;;;;;;3.17;0.90;;;;;;;;;;5037965;28;20041;-59
2022/05/31 10:45:33;;;;;;;6.00;1.00;;;;;;;;;;5037708;28;20574;-60
2022/05/31 10:48:01;;;;;;;2.95;1.05;;;;;;;;;;5038115;28;20533;-60
2022/05/31 10:50:34;;;;;;;4.18;1.00;;;;;;;;;;5038899;28;20049;-60
2022/05/31 10:53:17;;;;;;;2.40;0.88;;;;;;;;;;5041856;28;20044;-59
2022/05/31 10:56:03;;;;;;;3.80;1.23;;;;;;;;;;5036782;28;21080;-59
2022/05/31 10:58:42;;;;;;;3.65;1.25;;;;;;;;;;5038021;28;20047;-59
2022/05/31 11:01:24;;;;;;;3.38;1.00;;;;;;;;;;5038851;28;20474;-59
2022/05/31 11:03:57;;;;;;;4.88;1.20;;;;;;;;;;5038793;28;20047;-59
2022/05/31 11:06:32;;;;;;;3.90;1.30;;;;;;;;;;5038610;28;20080;-59
2022/05/31 11:12:11;;;;;;;3.72;1.05;;;;;;;;;;5038968;28;20055;-59
2022/05/31 11:14:44;;;;;;;2.85;1.08;;;;;;;;;;5038616;28;21745;-59
2022/05/31 11:17:31;;;;;;;3.90;0.83;;;;;;;;;;5038781;28;20044;-59
2022/05/31 11:20:17;;;;;;;2.80;1.10;;;;;;;;;;5038031;28;20292;-60
2022/05/31 11:23:02;;;;;;;2.92;1.17;;;;;;;;;;5038408;28;20037;-60
2022/05/31 11:25:32;;;;;;;2.60;0.98;;;;;;;;;;5038121;28;20090;-58
2022/05/31 11:28:10;;;;;;;3.42;0.88;;;;;;;;;;5041351;28;20044;-60
2022/05/31 11:30:41;;;;;;;4.90;1.20;;;;;;;;;;5038474;28;20063;-59
2022/05/31 11:33:26;;;;;;;3.25;1.00;;;;;;;;;;5036635;28;20532;-59
2022/05/31 11:35:56;;;;;;;3.05;1.05;;;;;;;;;;5022192;28;20062;-58
2022/05/31 11:38:26;;;;;;;3.70;1.10;;;;;;;;;;5020196;28;20076;-59
2022/05/31 11:41:03;;;;;;;4.18;1.15;;;;;;;;;;5023419;28;20038;-60
2022/05/31 11:43:29;;;;;;;5.82;1.30;;;;;;;;;;5017009;28;20053;-60
2022/05/31 11:46:15;;;;;;;3.40;1.15;;;;;;;;;;5021727;28;20180;-59
2022/05/31 11:49:00;;;;;;;4.82;1.17;;;;;;;;;;5036826;28;20044;-60
2022/05/31 11:51:32;;;;;;;3.70;1.35;;;;;;;;;;5037668;28;20057;-60
2022/05/31 11:54:08;;;;;;;4.73;1.13;;;;;;;;;;5038074;28;20064;-60
2022/05/31 11:56:53;;;;;;;3.38;1.20;;;;;;;;;;5037359;28;20045;-60
2022/05/31 11:59:34;;;;;;;3.90;1.30;;;;;;;;;;5037219;28;20040;-61
2022/05/31 12:02:06;;;;;;;3.83;1.33;;;;;;;;;;5035409;28;20041;-59
2022/05/31 12:04:38;;;;;;;3.47;1.25;;;;;;;;;;5034561;28;20405;-61
2022/05/31 12:07:16;;;;;;;9.55;1.30;;;;;;;;;;5036744;28;20037;-60
2022/05/31 12:09:52;;;;;;;3.90;1.42;;;;;;;;;;5033506;28;20114;-60
2022/05/31 12:12:21;;;;;;;4.63;1.30;;;;;;;;;;5049803;28;20065;-59
2022/05/31 12:14:50;;;;;;;5.03;1.63;;;;;;;;;;5035134;28;20069;-61
2022/05/31 12:17:21;;;;;;;4.20;1.40;;;;;;;;;;5043213;28;20131;-61
2022/05/31 12:19:57;;;;;;;4.10;1.50;;;;;;;;;;5021821;28;20112;-59
2022/05/31 12:22:29;;;;;;;5.00;1.63;;;;;;;;;;5015970;28;20045;-61
2022/05/31 12:24:58;;;;;;;4.60;1.40;;;;;;;;;;5016469;28;20131;-61
2022/05/31 12:27:43;;;;;;;5.70;1.63;;;;;;;;;;5016095;28;20040;-61
2022/05/31 12:30:13;;;;;;;4.65;1.40;;;;;;;;;;5023948;28;20056;-61
2022/05/31 12:32:40;;;;;;;3.70;1.40;;;;;;;;;;5035037;28;20068;-61
2022/05/31 12:35:09;;;;;;;6.82;1.20;;;;;;;;;;5036217;28;21946;-60
2022/05/31 12:38:07;;;;;;;4.47;1.40;;;;;;;;;;5035266;28;20045;-60
2022/05/31 12:40:33;;;;;;;5.57;1.63;;;;;;;;;;5035112;28;20900;-60
2022/05/31 12:43:17;;;;;;;7.75;2.17;;;;;;;;;;5037456;28;20040;-63
2022/05/31 12:45:47;;;;;;;7.07;1.77;;;;;;;;;;5035925;28;20041;-62
2022/05/31 12:48:26;;;;;;;8.40;2.20;;;;;;;;;;5036787;28;20045;-62
2022/05/31 12:50:56;;;;;;;6.15;1.95;;;;;;;;;;5036078;28;20104;-64
2022/05/31 12:53:38;;;;;;;8.32;2.03;;;;;;;;;;5036457;28;20033;-62
2022/05/31 12:56:07;;;;;;;13.05;2.25;;;;;;;;;;5036777;28;20047;-61
2022/05/31 12:58:37;;;;;;;15.90;2.10;;;;;;;;;;5037129;28;20037;-61
2022/05/31 13:01:15;;;;;;;12.60;1.85;;;;;;;;;;5039180;28;20045;-61
2022/05/31 13:03:45;;;;;;;9.35;1.85;;;;;;;;;;5033155;28;20450;-62
2022/05/31 13:06:18;;;;;;;17.40;2.20;;;;;;;;;;5038429;28;20132;-64
2022/05/31 13:08:59;;;;;;;15.70;2.50;;;;;;;;;;5039969;28;20929;-66
2022/05/31 13:20:21;;;;;;;9.38;1.48;;;;;;;;;;5033240;28;20118;-64
2022/05/31 13:22:58;;;;;;;5.32;1.70;;;;;;;;;;5034439;28;20048;-64
2022/05/31 13:25:27;;;;;;;3.72;1.05;;;;;;;;;;5036028;28;20044;-65
2022/05/31 13:27:56;;;;;;;4.10;1.20;;;;;;;;;;5035457;28;20037;-63
2022/05/31 13:30:24;;;;;;;3.60;1.27;;;;;;;;;;5034214;28;21410;-64
2022/05/31 13:32:51;;;;;;;7.60;1.48;;;;;;;;;;5035905;28;20037;-63
2022/05/31 13:35:25;;;;;;;5.20;1.38;;;;;;;;;;5019374;28;20072;-60
2022/05/31 13:37:56;;;;;;;4.03;1.23;;;;;;;;;;5030169;28;20983;-61
2022/05/31 13:40:24;;;;;;;9.10;1.42;;;;;;;;;;5000105;28;20041;-61
2022/05/31 13:42:51;;;;;;;7.50;1.30;;;;;;;;;;5025605;28;20048;-61
2022/05/31 13:45:23;;;;;;;5.38;1.20;;;;;;;;;;5039502;28;20029;-60
2022/05/31 13:47:52;;;;;;;6.10;1.10;;;;;;;;;;5039105;28;20045;-57
2022/05/31 13:50:21;;;;;;;3.40;0.95;;;;;;;;;;5040509;28;20083;-60
2022/05/31 13:52:52;;;;;;;4.45;1.35;;;;;;;;;;5040495;28;20128;-60
2022/05/31 13:55:23;;;;;;;3.60;1.08;;;;;;;;;;5040846;28;20037;-59
2022/05/31 13:57:52;;;;;;;8.18;1.33;;;;;;;;;;5042044;28;20048;-60
2022/05/31 14:00:31;;;;;;;5.55;1.17;;;;;;;;;;5041052;28;20076;-59
2022/05/31 14:03:06;;;;;;;6.15;1.20;;;;;;;;;;5027395;28;20406;-60
2022/05/31 14:05:37;;;;;;;6.75;1.08;;;;;;;;;;5029658;28;20044;-59
2022/05/31 14:08:04;;;;;;;4.63;1.48;;;;;;;;;;5030765;28;20120;-60
2022/05/31 14:10:35;;;;;;;4.40;1.50;;;;;;;;;;5037959;28;20385;-59
2022/05/31 14:13:04;;;;;;;5.00;1.50;;;;;;;;;;5042326;28;20036;-59
2022/05/31 14:15:32;;;;;;;9.48;1.77;;;;;;;;;;5039456;28;20052;-59
2022/05/31 14:18:08;;;;;;;10.68;1.50;;;;;;;;;;5039444;28;20033;-59
2022/05/31 14:20:50;;;;;;;4.25;1.20;;;;;;;;;;5038230;28;20056;-60
2022/05/31 14:23:22;;;;;;;4.85;1.50;;;;;;;;;;5041326;28;20033;-59
2022/05/31 14:25:52;;;;;;;3.65;1.30;;;;;;;;;;5019133;28;20501;-59
2022/05/31 14:28:20;;;;;;;3.25;1.20;;;;;;;;;;5020278;28;20120;-59
2022/05/31 14:30:51;;;;;;;3.88;1.00;;;;;;;;;;5018512;28;20149;-60
2022/05/31 14:33:18;;;;;;;7.50;1.80;;;;;;;;;;5020820;28;20052;-60
2022/05/31 14:35:46;;;;;;;7.70;1.50;;;;;;;;;;5020342;28;20041;-61
2022/05/31 14:38:38;;;;;;;7.75;1.70;;;;;;;;;;5020876;28;20041;-59
2022/05/31 14:41:04;;;;;;;12.13;1.67;;;;;;;;;;5033539;28;20519;-60
2022/05/31 14:43:33;;;;;;;15.95;1.50;;;;;;;;;;5036760;28;20053;-61
2022/05/31 14:46:00;;;;;;;4.75;1.30;;;;;;;;;;5038354;28;20048;-62
2022/05/31 14:48:36;;;;;;;7.93;1.20;;;;;;;;;;5037754;28;20512;-61
2022/05/31 14:51:16;;;;;;;5.38;1.20;;;;;;;;;;5038246;28;20104;-61
2022/05/31 14:53:44;;;;;;;3.58;1.30;;;;;;;;;;5037305;28;20036;-60
2022/05/31 14:56:20;;;;;;;5.57;1.30;;;;;;;;;;5037846;28;20037;-61
2022/05/31 14:58:47;;;;;;;6.07;1.33;;;;;;;;;;5026639;28;20044;-58
2022/05/31 15:01:19;;;;;;;4.50;1.40;;;;;;;;;;5036896;28;20064;-60
2022/05/31 15:03:48;;;;;;;3.45;1.10;;;;;;;;;;5035986;28;20040;-61
2022/05/31 15:06:26;;;;;;;5.25;1.42;;;;;;;;;;5037162;28;20041;-61
2022/05/31 15:09:02;;;;;;;6.65;1.10;;;;;;;;;;5034589;28;20469;-61
2022/05/31 15:19:45;;;;;;;4.57;1.20;;;;;;;;;;5036336;28;20055;-60
2022/05/31 15:22:14;;;;;;;4.93;1.35;;;;;;;;;;5038181;28;20045;-60
2022/05/31 15:24:42;;;;;;;4.20;1.17;;;;;;;;;;5036611;28;20042;-61
2022/05/31 15:27:32;;;;;;;6.72;0.98;;;;;;;;;;5037156;28;20029;-61
2022/05/31 15:29:59;;;;;;;3.08;0.95;;;;;;;;;;5035607;28;20056;-61
2022/05/31 15:32:26;;;;;;;3.75;1.30;;;;;;;;;;5038695;28;20037;-60
2022/05/31 15:34:53;;;;;;;5.43;1.45;;;;;;;;;;5038840;28;20425;-61
2022/05/31 15:37:21;;;;;;;5.70;0.90;;;;;;;;;;5039517;28;20034;-60
2022/05/31 15:39:48;;;;;;;3.10;0.90;;;;;;;;;;5038084;28;20040;-62
2022/05/31 15:42:16;;;;;;;3.95;0.90;;;;;;;;;;5039972;28;20033;-60
2022/05/31 15:44:44;;;;;;;5.32;0.88;;;;;;;;;;5038337;28;20139;-60